createdAt,value
2023-05-19T00:00:28.288Z,1023.21
2023-05-19T00:02:13.254Z,1023.21
2023-05-19T00:03:58.288Z,1023.28
2023-05-19T00:05:43.619Z,1023.21
2023-05-19T00:07:28.250Z,1023.27
2023-05-19T00:09:13.296Z,1023.32
2023-05-19T00:10:58.336Z,1023.3
2023-05-19T00:12:43.365Z,1023.18
2023-05-19T00:14:28.263Z,1023.36
2023-05-19T00:16:13.320Z,1023.33
2023-05-19T00:17:58.415Z,1023.24
2023-05-19T00:19:43.267Z,1023.19
2023-05-19T00:21:28.339Z,1023.26
2023-05-19T00:23:13.622Z,1023.21
2023-05-19T00:24:58.301Z,1023.28
2023-05-19T00:26:43.334Z,1023.19
2023-05-19T00:28:28.932Z,1023.26
2023-05-19T00:30:13.300Z,1023.28
2023-05-19T00:31:58.424Z,1023.25
2023-05-19T00:33:43.295Z,1023.23
2023-05-19T00:35:28.302Z,1023.25
2023-05-19T00:37:13.372Z,1023.25
2023-05-19T00:38:58.612Z,1023.24
2023-05-19T00:40:43.316Z,1023.25
2023-05-19T00:42:28.307Z,1023.27
2023-05-19T00:44:13.320Z,1023.22
2023-05-19T00:45:58.340Z,1023.22
2023-05-19T00:47:43.443Z,1023.28
2023-05-19T00:49:28.325Z,1023.34
2023-05-19T00:51:13.334Z,1023.2
2023-05-19T00:52:58.352Z,1023.22
2023-05-19T00:54:43.329Z,1023.16
2023-05-19T00:56:28.336Z,1023.16
2023-05-19T00:58:13.371Z,1023.22
2023-05-19T00:59:58.379Z,1023.21
2023-05-19T01:01:43.369Z,1023.21
2023-05-19T01:03:28.413Z,1023.18
2023-05-19T01:05:13.360Z,1023.24
2023-05-19T01:06:58.358Z,1023.14
2023-05-19T01:08:43.404Z,1023.21
2023-05-19T01:10:28.367Z,1023.11
2023-05-19T01:12:13.387Z,1023.24
2023-05-19T01:13:58.400Z,1023.17
2023-05-19T01:15:43.727Z,1023.11
2023-05-19T01:17:28.365Z,1023.01
2023-05-19T01:19:13.734Z,1023.11
2023-05-19T01:20:58.392Z,1023.04
2023-05-19T01:22:43.375Z,1023.12
2023-05-19T01:24:28.428Z,1023.05
2023-05-19T01:26:13.380Z,1023.04
2023-05-19T01:27:58.382Z,1023.04
2023-05-19T01:29:43.465Z,1023
2023-05-19T01:31:28.735Z,1023.08
2023-05-19T01:33:13.391Z,1022.99
2023-05-19T01:34:58.419Z,1023.1
2023-05-19T01:36:43.392Z,1023.03
2023-05-19T01:38:28.389Z,1022.97
2023-05-19T01:40:13.457Z,1023.1
2023-05-19T01:41:58.425Z,1023.13
2023-05-19T01:43:43.435Z,1023.06
2023-05-19T01:45:28.433Z,1023.15
2023-05-19T01:47:13.538Z,1023.16
2023-05-19T01:48:58.417Z,1023.05
2023-05-19T01:50:43.774Z,1023.19
2023-05-19T01:52:28.730Z,1023.2
2023-05-19T01:54:13.424Z,1023.13
2023-05-19T01:55:58.468Z,1023.1
2023-05-19T01:57:43.446Z,1023.14
2023-05-19T01:59:28.429Z,1023.13
2023-05-19T02:01:13.475Z,1023.1
2023-05-19T02:02:58.470Z,1023.16
2023-05-19T02:04:43.477Z,1023.1
2023-05-19T02:06:28.467Z,1023.11
2023-05-19T02:08:13.467Z,1023.15
2023-05-19T02:09:58.426Z,1023.13
2023-05-19T02:11:43.468Z,1023.09
2023-05-19T02:13:28.428Z,1023.07
2023-05-19T02:15:13.442Z,1023.1
2023-05-19T02:16:58.494Z,1023.08
2023-05-19T02:18:43.801Z,1023.11
2023-05-19T02:20:28.471Z,1023.05
2023-05-19T02:22:13.487Z,1023.13
2023-05-19T02:23:58.449Z,1023.1
2023-05-19T02:25:43.457Z,1023.05
2023-05-19T02:27:28.510Z,1023
2023-05-19T02:29:13.474Z,1023.08
2023-05-19T02:30:58.443Z,1023.09
2023-05-19T02:32:43.562Z,1023.08
2023-05-19T02:34:28.501Z,1023.01
2023-05-19T02:36:14.104Z,1023.02
2023-05-19T02:37:58.482Z,1022.95
2023-05-19T02:39:43.463Z,1022.94
2023-05-19T02:41:28.468Z,1022.86
2023-05-19T02:43:13.562Z,1022.84
2023-05-19T02:44:58.504Z,1022.88
2023-05-19T02:46:43.522Z,1022.85
2023-05-19T02:48:28.493Z,1022.84
2023-05-19T02:50:13.515Z,1022.87
2023-05-19T02:51:58.478Z,1022.82
2023-05-19T02:53:43.585Z,1022.82
2023-05-19T02:55:28.489Z,1022.75
2023-05-19T02:57:13.500Z,1022.75
2023-05-19T02:58:58.542Z,1022.83
2023-05-19T03:00:43.502Z,1022.86
2023-05-19T03:02:28.588Z,1022.9
2023-05-19T03:04:13.605Z,1022.9
2023-05-19T03:05:58.550Z,1022.86
2023-05-19T03:07:43.514Z,1022.81
2023-05-19T03:09:28.555Z,1022.88
2023-05-19T03:11:13.498Z,1022.81
2023-05-19T03:12:58.529Z,1022.92
2023-05-19T03:14:43.610Z,1022.95
2023-05-19T03:16:28.555Z,1022.83
2023-05-19T03:18:13.574Z,1022.91
2023-05-19T03:19:58.556Z,1022.9
2023-05-19T03:21:43.549Z,1022.93
2023-05-19T03:23:28.524Z,1022.98
2023-05-19T03:25:13.623Z,1022.81
2023-05-19T03:26:58.562Z,1022.92
2023-05-19T03:28:43.591Z,1022.86
2023-05-19T03:30:28.600Z,1022.93
2023-05-19T03:32:13.885Z,1022.86
2023-05-19T03:33:58.543Z,1022.93
2023-05-19T03:35:43.617Z,1022.92
2023-05-19T03:37:28.647Z,1022.95
2023-05-19T03:39:13.564Z,1022.94
2023-05-19T03:40:58.604Z,1022.96
2023-05-19T03:42:43.562Z,1022.94
2023-05-19T03:44:28.547Z,1022.92
2023-05-19T03:46:13.667Z,1022.95
2023-05-19T03:47:58.611Z,1022.9
2023-05-19T03:49:43.579Z,1022.81
2023-05-19T03:51:28.651Z,1022.91
2023-05-19T03:53:13.635Z,1022.89
2023-05-19T03:54:58.611Z,1022.84
2023-05-19T03:56:43.681Z,1022.88
2023-05-19T03:58:28.613Z,1022.91
2023-05-19T04:00:13.604Z,1022.96
2023-05-19T04:01:58.664Z,1022.91
2023-05-19T04:03:43.644Z,1022.93
2023-05-19T04:05:28.909Z,1022.92
2023-05-19T04:07:13.654Z,1022.99
2023-05-19T04:08:58.711Z,1023
2023-05-19T04:10:43.627Z,1023.01
2023-05-19T04:12:28.651Z,1023.04
2023-05-19T04:14:13.613Z,1023
2023-05-19T04:15:58.631Z,1022.95
2023-05-19T04:17:43.724Z,1023
2023-05-19T04:19:28.732Z,1023.16
2023-05-19T04:21:13.641Z,1023.02
2023-05-19T04:22:58.955Z,1023.13
2023-05-19T04:24:43.671Z,1023.13
2023-05-19T04:26:28.659Z,1023.14
2023-05-19T04:28:13.709Z,1023.11
2023-05-19T04:29:58.642Z,1023.01
2023-05-19T04:31:43.686Z,1023.08
2023-05-19T04:33:28.692Z,1023
2023-05-19T04:35:13.668Z,1023.15
2023-05-19T04:36:58.664Z,1023.09
2023-05-19T04:38:43.655Z,1023.07
2023-05-19T04:40:28.745Z,1023.07
2023-05-19T04:42:13.976Z,1023.07
2023-05-19T04:43:58.743Z,1023.03
2023-05-19T04:45:43.695Z,1023.06
2023-05-19T04:47:28.704Z,1023.09
2023-05-19T04:49:13.696Z,1023.13
2023-05-19T04:50:58.670Z,1023.07
2023-05-19T04:52:43.683Z,1023.04
2023-05-19T04:54:28.735Z,1023.12
2023-05-19T04:56:13.822Z,1023.01
2023-05-19T04:57:58.670Z,1023.08
2023-05-19T04:59:43.708Z,1023.05
2023-05-19T05:01:28.680Z,1023.06
2023-05-19T05:03:13.743Z,1023.08
2023-05-19T05:04:58.744Z,1023.07
2023-05-19T05:06:44.005Z,1023.14
2023-05-19T05:08:28.717Z,1023.04
2023-05-19T05:10:13.722Z,1023.13
2023-05-19T05:11:58.719Z,1023.08
2023-05-19T05:13:43.711Z,1023.1
2023-05-19T05:15:28.772Z,1023.13
2023-05-19T05:17:13.725Z,1023.13
2023-05-19T05:18:58.781Z,1023.04
2023-05-19T05:20:43.738Z,1023.09
2023-05-19T05:22:28.688Z,1023.12
2023-05-19T05:24:13.700Z,1023.19
2023-05-19T05:25:58.769Z,1023.07
2023-05-19T05:27:43.777Z,1023
2023-05-19T05:29:28.711Z,1023.18
2023-05-19T05:31:13.793Z,1023.03
2023-05-19T05:32:58.887Z,1023.14
2023-05-19T05:34:43.750Z,1023.15
2023-05-19T05:36:28.800Z,1023.05
2023-05-19T05:38:13.762Z,1023.08
2023-05-19T05:39:58.753Z,1023.09
2023-05-19T05:41:43.775Z,1023.06
2023-05-19T05:43:28.808Z,1023
2023-05-19T05:45:13.770Z,1023.07
2023-05-19T05:46:58.820Z,1023.14
2023-05-19T05:48:43.762Z,1023.01
2023-05-19T05:50:28.753Z,1023.07
2023-05-19T05:52:13.775Z,1023
2023-05-19T05:53:58.762Z,1022.96
2023-05-19T05:55:43.763Z,1023.01
2023-05-19T05:57:28.781Z,1022.98
2023-05-19T05:59:14.100Z,1022.94
2023-05-19T06:00:58.759Z,1022.89
2023-05-19T06:02:43.852Z,1022.89
2023-05-19T06:04:28.809Z,1023.01
2023-05-19T06:06:13.814Z,1022.95
2023-05-19T06:07:58.810Z,1022.97
2023-05-19T06:09:43.819Z,1022.88
2023-05-19T06:11:29.087Z,1022.84
2023-05-19T06:13:13.836Z,1022.89
2023-05-19T06:14:58.842Z,1022.9
2023-05-19T06:16:43.814Z,1022.87
2023-05-19T06:18:28.825Z,1022.87
2023-05-19T06:20:13.798Z,1022.84
2023-05-19T06:21:58.805Z,1022.78
2023-05-19T06:23:43.845Z,1022.91
2023-05-19T06:25:28.841Z,1022.92
2023-05-19T06:27:13.831Z,1022.9
2023-05-19T06:28:58.849Z,1022.91
2023-05-19T06:30:43.831Z,1022.99
2023-05-19T06:32:28.844Z,1022.95
2023-05-19T06:34:13.888Z,1023.01
2023-05-19T06:35:58.815Z,1022.97
2023-05-19T06:37:43.846Z,1023
2023-05-19T06:39:28.849Z,1022.92
2023-05-19T06:41:13.821Z,1023
2023-05-19T06:42:58.866Z,1022.96
2023-05-19T06:44:43.894Z,1023.11
2023-05-19T06:46:28.960Z,1023
2023-05-19T06:48:13.941Z,1023.01
2023-05-19T06:49:58.892Z,1022.99
2023-05-19T06:51:44.144Z,1022.99
2023-05-19T06:53:28.860Z,1022.91
2023-05-19T06:55:13.918Z,1022.95
2023-05-19T06:56:58.892Z,1022.94
2023-05-19T06:58:44.164Z,1022.92
2023-05-19T07:00:28.928Z,1023.06
2023-05-19T07:02:14.040Z,1022.97
2023-05-19T07:03:59.282Z,1022.98
2023-05-19T07:05:43.909Z,1022.91
2023-05-19T07:07:28.864Z,1022.97
2023-05-19T07:09:13.873Z,1022.95
2023-05-19T07:10:58.946Z,1022.93
2023-05-19T07:12:43.862Z,1022.95
2023-05-19T07:14:28.867Z,1023
2023-05-19T07:16:13.908Z,1022.92
2023-05-19T07:17:58.992Z,1022.93
2023-05-19T07:19:43.913Z,1022.87
2023-05-19T07:21:28.998Z,1022.83
2023-05-19T07:23:15.444Z,1022.88
2023-05-19T07:24:58.903Z,1022.9
2023-05-19T07:26:43.900Z,1022.88
2023-05-19T07:28:28.903Z,1022.92
2023-05-19T07:30:13.902Z,1022.81
2023-05-19T07:31:58.967Z,1022.8
2023-05-19T07:33:43.936Z,1022.84
2023-05-19T07:35:28.886Z,1022.81
2023-05-19T07:37:14.010Z,1022.82
2023-05-19T07:38:59.199Z,1022.83
2023-05-19T07:40:43.881Z,1022.77
2023-05-19T07:42:28.976Z,1022.86
2023-05-19T07:44:13.901Z,1022.9
2023-05-19T07:45:58.934Z,1022.8
2023-05-19T07:47:44.007Z,1022.79
2023-05-19T07:49:29.249Z,1022.91
2023-05-19T07:51:13.925Z,1022.86
2023-05-19T07:52:58.986Z,1022.69
2023-05-19T07:54:43.925Z,1022.8
2023-05-19T07:56:28.915Z,1022.76
2023-05-19T07:58:14.276Z,1022.79
2023-05-19T07:59:58.940Z,1022.8
2023-05-19T08:01:43.914Z,1022.81
2023-05-19T08:03:29.325Z,1022.74
2023-05-19T08:05:14.363Z,1022.77
2023-05-19T08:06:58.913Z,1022.87
2023-05-19T08:08:43.998Z,1022.71
2023-05-19T08:10:28.971Z,1022.78
2023-05-19T08:12:13.951Z,1022.76
2023-05-19T08:13:59.028Z,1022.79
2023-05-19T08:15:43.982Z,1022.75
2023-05-19T08:17:28.978Z,1022.69
2023-05-19T08:19:14.025Z,1022.68
2023-05-19T08:20:58.988Z,1022.6
2023-05-19T08:22:43.956Z,1022.72
2023-05-19T08:24:28.977Z,1022.64
2023-05-19T08:26:13.963Z,1022.59
2023-05-19T08:27:58.988Z,1022.57
2023-05-19T08:29:43.991Z,1022.6
2023-05-19T08:31:29.014Z,1022.54
2023-05-19T08:33:14.033Z,1022.58
2023-05-19T08:34:59.006Z,1022.59
2023-05-19T08:36:44.009Z,1022.49
2023-05-19T08:38:29.297Z,1022.61
2023-05-19T08:40:13.982Z,1022.53
2023-05-19T08:41:58.987Z,1022.58
2023-05-19T08:43:44.020Z,1022.49
2023-05-19T08:45:29.033Z,1022.46
2023-05-19T08:47:13.989Z,1022.59
2023-05-19T08:48:59.015Z,1022.49
2023-05-19T08:50:44.025Z,1022.44
2023-05-19T08:52:29.017Z,1022.43
2023-05-19T08:54:13.995Z,1022.47
2023-05-19T08:55:59.073Z,1022.4
2023-05-19T08:57:43.988Z,1022.38
2023-05-19T08:59:28.995Z,1022.33
2023-05-19T09:01:14.116Z,1022.33
2023-05-19T09:03:00.349Z,1022.39
2023-05-19T09:04:44.037Z,1022.31
2023-05-19T09:06:29.086Z,1022.39
2023-05-19T09:08:14.053Z,1022.32
2023-05-19T09:09:59.018Z,1022.26
2023-05-19T09:11:44.055Z,1022.35
2023-05-19T09:13:29.040Z,1022.29
2023-05-19T09:15:14.023Z,1022.35
2023-05-19T09:16:59.489Z,1022.29
2023-05-19T09:18:44.052Z,1022.35
2023-05-19T09:20:29.045Z,1022.25
2023-05-19T09:22:14.095Z,1022.23
2023-05-19T09:23:59.071Z,1022.13
2023-05-19T09:25:44.054Z,1022.16
2023-05-19T09:27:29.110Z,1022.18
2023-05-19T09:29:14.059Z,1022.27
2023-05-19T09:30:59.064Z,1022.12
2023-05-19T09:32:44.128Z,1022.01
2023-05-19T09:34:29.079Z,1022.04
2023-05-19T09:36:14.100Z,1022.08
2023-05-19T09:37:59.107Z,1022.08
2023-05-19T09:39:44.081Z,1022.06
2023-05-19T09:41:29.087Z,1022.08
2023-05-19T09:43:14.136Z,1021.98
2023-05-19T09:44:59.095Z,1021.97
2023-05-19T09:46:44.151Z,1021.96
2023-05-19T09:48:29.141Z,1021.93
2023-05-19T09:50:14.113Z,1022.05
2023-05-19T09:51:59.085Z,1021.93
2023-05-19T09:53:44.108Z,1022.02
2023-05-19T09:55:29.123Z,1021.91
2023-05-19T09:57:14.108Z,1021.93
2023-05-19T09:58:59.083Z,1021.94
2023-05-19T10:00:44.144Z,1021.81
2023-05-19T10:02:29.418Z,1021.94
2023-05-19T10:04:14.378Z,1021.86
2023-05-19T10:05:59.153Z,1021.96
2023-05-19T10:07:44.097Z,1021.95
2023-05-19T10:09:29.138Z,1021.93
2023-05-19T10:11:14.958Z,1021.81
2023-05-19T10:12:59.114Z,1021.85
2023-05-19T10:14:44.119Z,1021.9
2023-05-19T10:16:29.258Z,1021.87
2023-05-19T10:18:14.780Z,1021.84
2023-05-19T10:19:59.114Z,1021.88
2023-05-19T10:21:44.169Z,1021.71
2023-05-19T10:23:29.137Z,1021.79
2023-05-19T10:25:14.428Z,1021.85
2023-05-19T10:26:59.265Z,1021.76
2023-05-19T10:28:44.131Z,1021.78
2023-05-19T10:30:29.148Z,1021.8
2023-05-19T10:32:14.211Z,1021.75
2023-05-19T10:33:59.133Z,1021.79
2023-05-19T10:35:45.267Z,1021.79
2023-05-19T10:37:29.201Z,1021.73
2023-05-19T10:39:14.169Z,1021.74
2023-05-19T10:40:59.159Z,1021.68
2023-05-19T10:42:44.288Z,1021.75
2023-05-19T10:44:29.182Z,1021.67
2023-05-19T10:46:14.184Z,1021.64
2023-05-19T10:47:59.194Z,1021.75
2023-05-19T10:49:44.180Z,1021.74
2023-05-19T10:51:29.231Z,1021.72
2023-05-19T10:53:14.190Z,1021.63
2023-05-19T10:54:59.196Z,1021.57
2023-05-19T10:56:44.180Z,1021.72
2023-05-19T10:58:29.296Z,1021.71
2023-05-19T11:00:14.211Z,1021.61
2023-05-19T11:01:59.221Z,1021.59
2023-05-19T11:03:44.196Z,1021.56
2023-05-19T11:05:29.201Z,1021.56
2023-05-19T11:07:14.534Z,1021.51
2023-05-19T11:08:59.285Z,1021.53
2023-05-19T11:10:44.222Z,1021.5
2023-05-19T11:12:29.257Z,1021.53
2023-05-19T11:14:14.353Z,1021.56
2023-05-19T11:15:59.211Z,1021.6
2023-05-19T11:17:44.309Z,1021.54
2023-05-19T11:19:29.291Z,1021.53
2023-05-19T11:21:14.265Z,1021.6
2023-05-19T11:22:59.550Z,1021.64
2023-05-19T11:24:44.281Z,1021.61
2023-05-19T11:26:29.236Z,1021.58
2023-05-19T11:28:14.276Z,1021.58
2023-05-19T11:29:59.289Z,1021.54
2023-05-19T11:31:44.263Z,1021.55
2023-05-19T11:33:29.270Z,1021.57
2023-05-19T11:35:14.293Z,1021.55
2023-05-19T11:36:59.223Z,1021.43
2023-05-19T11:38:44.251Z,1021.57
2023-05-19T11:40:29.340Z,1021.52
2023-05-19T11:42:14.258Z,1021.49
2023-05-19T11:43:59.566Z,1021.38
2023-05-19T11:45:44.422Z,1021.49
2023-05-19T11:47:29.317Z,1021.42
2023-05-19T11:49:14.312Z,1021.44
2023-05-19T11:50:59.628Z,1021.42
2023-05-19T11:52:44.561Z,1021.32
2023-05-19T11:54:29.299Z,1021.37
2023-05-19T11:56:14.324Z,1021.43
2023-05-19T11:59:44.337Z,1021.32
2023-05-19T12:01:29.356Z,1021.35
2023-05-19T12:03:14.337Z,1021.26
2023-05-19T12:04:59.307Z,1021.32
2023-05-19T12:06:44.399Z,1021.3
2023-05-19T12:08:29.322Z,1021.27
2023-05-19T12:10:14.623Z,1021.15
2023-05-19T12:11:59.321Z,1021.17
2023-05-19T12:13:44.317Z,1021.12
2023-05-19T12:15:29.300Z,1021.07
2023-05-19T12:17:14.477Z,1021.14
2023-05-19T12:18:59.328Z,1020.99
2023-05-19T12:20:44.326Z,1021.05
2023-05-19T12:22:29.422Z,1021.14
2023-05-19T12:24:14.633Z,1021.04
2023-05-19T12:25:59.321Z,1021.11
2023-05-19T12:27:44.429Z,1021.06
2023-05-19T12:29:29.339Z,1021.01
2023-05-19T12:31:14.343Z,1021
2023-05-19T12:32:59.563Z,1021.02
2023-05-19T12:34:44.342Z,1020.94
2023-05-19T12:36:29.356Z,1020.92
2023-05-19T12:38:14.707Z,1020.96
2023-05-19T12:39:59.687Z,1020.86
2023-05-19T12:41:44.339Z,1020.89
2023-05-19T12:43:29.404Z,1020.86
2023-05-19T12:45:14.348Z,1020.75
2023-05-19T12:46:59.345Z,1020.82
2023-05-19T12:48:44.497Z,1020.75
2023-05-19T12:50:29.367Z,1020.83
2023-05-19T12:52:14.332Z,1020.84
2023-05-19T12:53:59.399Z,1020.85
2023-05-19T12:55:44.398Z,1020.79
2023-05-19T12:57:29.359Z,1020.76
2023-05-19T12:59:15.371Z,1020.74
2023-05-19T13:00:59.401Z,1020.73
2023-05-19T13:02:44.418Z,1020.72
2023-05-19T13:04:29.471Z,1020.69
2023-05-19T13:06:14.390Z,1020.7
2023-05-19T13:07:59.385Z,1020.72
2023-05-19T13:09:44.776Z,1020.67
2023-05-19T13:11:29.398Z,1020.8
2023-05-19T13:13:14.396Z,1020.69
2023-05-19T13:14:59.464Z,1020.72
2023-05-19T13:16:44.428Z,1020.69
2023-05-19T13:18:29.391Z,1020.6
2023-05-19T13:20:14.501Z,1020.6
2023-05-19T13:21:59.422Z,1020.68
2023-05-19T13:23:44.416Z,1020.63
2023-05-19T13:25:29.457Z,1020.63
2023-05-19T13:27:14.477Z,1020.63
2023-05-19T13:28:59.407Z,1020.69
2023-05-19T13:30:44.491Z,1020.65
2023-05-19T13:32:29.509Z,1020.59
2023-05-19T13:34:14.428Z,1020.66
2023-05-19T13:35:59.806Z,1020.64
2023-05-19T13:37:44.468Z,1020.6
2023-05-19T13:39:29.436Z,1020.58
2023-05-19T13:41:15.916Z,1020.64
2023-05-19T13:42:59.444Z,1020.52
2023-05-19T13:44:44.442Z,1020.52
2023-05-19T13:46:36.956Z,1020.44
2023-05-19T13:48:14.483Z,1020.47
2023-05-19T13:49:59.431Z,1020.43
2023-05-19T13:51:44.531Z,1020.43
2023-05-19T13:53:29.470Z,1020.39
2023-05-19T13:55:14.477Z,1020.35
2023-05-19T13:56:59.530Z,1020.45
2023-05-19T13:58:44.465Z,1020.36
2023-05-19T14:00:29.503Z,1020.44
2023-05-19T14:02:14.524Z,1020.36
2023-05-19T14:04:00.882Z,1020.34
2023-05-19T14:05:44.472Z,1020.27
2023-05-19T14:07:29.588Z,1020.34
2023-05-19T14:09:14.518Z,1020.28
2023-05-19T14:10:59.511Z,1020.34
2023-05-19T14:13:08.358Z,1020.28
2023-05-19T14:14:29.488Z,1020.27
2023-05-19T14:16:14.562Z,1020.28
2023-05-19T14:17:59.921Z,1020.29
2023-05-19T14:19:44.484Z,1020.27
2023-05-19T14:21:29.527Z,1020.35
2023-05-19T14:23:14.581Z,1020.27
2023-05-19T14:24:59.527Z,1020.3
2023-05-19T14:26:44.534Z,1020.24
2023-05-19T14:28:29.543Z,1020.28
2023-05-19T14:30:14.526Z,1020.38
2023-05-19T14:31:59.589Z,1020.34
2023-05-19T14:33:44.507Z,1020.28
2023-05-19T14:35:29.528Z,1020.29
2023-05-19T14:37:14.617Z,1020.18
2023-05-19T14:38:59.636Z,1020.2
2023-05-19T14:40:44.540Z,1020.3
2023-05-19T14:42:29.533Z,1020.31
2023-05-19T14:44:14.622Z,1020.24
2023-05-19T14:45:59.563Z,1020.24
2023-05-19T14:47:44.570Z,1020.2
2023-05-19T14:49:29.575Z,1020.19
2023-05-19T14:51:14.531Z,1020.27
2023-05-19T14:52:59.554Z,1020.25
2023-05-19T14:54:44.935Z,1020.33
2023-05-19T14:56:29.595Z,1020.19
2023-05-19T14:58:27.351Z,1020.3
2023-05-19T14:59:59.600Z,1020.19
2023-05-19T15:01:44.606Z,1020.24
2023-05-19T15:03:29.623Z,1020.22
2023-05-19T15:05:14.615Z,1020.05
2023-05-19T15:08:44.556Z,1020.1
2023-05-19T15:10:29.622Z,1020.09
2023-05-19T15:12:14.597Z,1020.01
2023-05-19T15:13:59.573Z,1020.24
2023-05-19T15:15:44.580Z,1020.04
2023-05-19T15:17:29.878Z,1020.17
2023-05-19T15:19:14.614Z,1020.17
2023-05-19T15:20:59.623Z,1020.05
2023-05-19T15:22:44.898Z,1020.08
2023-05-19T15:24:29.608Z,1020.13
2023-05-19T15:26:14.640Z,1019.99
2023-05-19T15:27:59.585Z,1019.95
2023-05-19T15:29:44.880Z,1019.99
2023-05-19T15:31:29.676Z,1020.01
2023-05-19T15:33:14.897Z,1019.99
2023-05-19T15:34:59.581Z,1019.94
2023-05-19T15:36:44.612Z,1020
2023-05-19T15:38:30.135Z,1020
2023-05-19T15:40:14.881Z,1019.99
2023-05-19T15:41:59.718Z,1020.04
2023-05-19T15:43:44.594Z,1020
2023-05-19T15:45:29.630Z,1020.01
2023-05-19T15:47:14.648Z,1020.04
2023-05-19T15:48:59.612Z,1019.93
2023-05-19T15:50:44.624Z,1019.99
2023-05-19T15:52:29.675Z,1019.98
2023-05-19T15:54:14.638Z,1019.91
2023-05-19T15:55:59.624Z,1019.89
2023-05-19T15:57:44.685Z,1019.9
2023-05-19T15:59:29.672Z,1019.84
2023-05-19T16:01:14.659Z,1019.85
2023-05-19T16:02:59.845Z,1019.85
2023-05-19T16:04:44.640Z,1019.94
2023-05-19T16:06:29.659Z,1019.89
2023-05-19T16:08:14.685Z,1019.96
2023-05-19T16:09:59.645Z,1019.93
2023-05-19T16:11:44.677Z,1019.89
2023-05-19T16:13:29.791Z,1019.78
2023-05-19T16:15:14.667Z,1019.88
2023-05-19T16:17:02.481Z,1019.74
2023-05-19T16:18:44.711Z,1019.81
2023-05-19T16:20:29.957Z,1019.8
2023-05-19T16:22:14.729Z,1019.77
2023-05-19T16:23:59.706Z,1019.84
2023-05-19T16:25:44.670Z,1019.8
2023-05-19T16:27:29.677Z,1019.76
2023-05-19T16:29:14.752Z,1019.75
2023-05-19T16:30:59.681Z,1019.7
2023-05-19T16:32:44.727Z,1019.72
2023-05-19T16:34:30.630Z,1019.72
2023-05-19T16:36:14.673Z,1019.63
2023-05-19T16:37:59.743Z,1019.71
2023-05-19T16:39:44.738Z,1019.75
2023-05-19T16:41:30.009Z,1019.63
2023-05-19T16:43:14.697Z,1019.69
2023-05-19T16:44:59.738Z,1019.66
2023-05-19T16:46:44.728Z,1019.67
2023-05-19T16:48:29.985Z,1019.6
2023-05-19T16:50:14.764Z,1019.68
2023-05-19T16:51:59.720Z,1019.65
2023-05-19T16:53:44.704Z,1019.66
2023-05-19T16:55:29.755Z,1019.59
2023-05-19T16:57:14.797Z,1019.51
2023-05-19T16:58:59.721Z,1019.57
2023-05-19T17:00:45.134Z,1019.66
2023-05-19T17:02:29.871Z,1019.58
2023-05-19T17:04:15.068Z,1019.63
2023-05-19T17:05:59.833Z,1019.56
2023-05-19T17:07:44.755Z,1019.61
2023-05-19T17:09:29.758Z,1019.62
2023-05-19T17:11:14.725Z,1019.56
2023-05-19T17:12:59.721Z,1019.61
2023-05-19T17:14:44.760Z,1019.62
2023-05-19T17:16:29.829Z,1019.53
2023-05-19T17:18:14.747Z,1019.51
2023-05-19T17:19:59.768Z,1019.62
2023-05-19T17:21:44.760Z,1019.52
2023-05-19T17:23:29.720Z,1019.56
2023-05-19T17:25:14.757Z,1019.61
2023-05-19T17:26:59.805Z,1019.66
2023-05-19T17:28:44.764Z,1019.62
2023-05-19T17:30:29.762Z,1019.63
2023-05-19T17:32:14.889Z,1019.61
2023-05-19T17:33:59.740Z,1019.73
2023-05-19T17:35:44.776Z,1019.66
2023-05-19T17:37:29.820Z,1019.57
2023-05-19T17:39:14.768Z,1019.74
2023-05-19T17:40:59.774Z,1019.72
2023-05-19T17:42:44.806Z,1019.69
2023-05-19T17:44:29.783Z,1019.72
2023-05-19T17:46:14.807Z,1019.68
2023-05-19T17:47:59.903Z,1019.71
2023-05-19T17:49:45.070Z,1019.77
2023-05-19T17:51:29.800Z,1019.71
2023-05-19T17:53:14.830Z,1019.71
2023-05-19T17:54:59.788Z,1019.69
2023-05-19T17:56:44.797Z,1019.67
2023-05-19T17:58:29.858Z,1019.69
2023-05-19T18:00:14.782Z,1019.7
2023-05-19T18:01:59.853Z,1019.78
2023-05-19T18:03:44.954Z,1019.74
2023-05-19T18:05:29.791Z,1019.84
2023-05-19T18:07:14.850Z,1019.73
2023-05-19T18:08:59.820Z,1019.85
2023-05-19T18:10:44.799Z,1019.8
2023-05-19T18:12:29.829Z,1019.76
2023-05-19T18:14:14.853Z,1019.69
2023-05-19T18:15:59.854Z,1019.74
2023-05-19T18:17:44.859Z,1019.71
2023-05-19T18:19:29.905Z,1019.76
2023-05-19T18:21:14.831Z,1019.77
2023-05-19T18:22:59.830Z,1019.77
2023-05-19T18:24:44.914Z,1019.8
2023-05-19T18:26:29.840Z,1019.88
2023-05-19T18:28:14.862Z,1019.78
2023-05-19T18:29:59.878Z,1019.83
2023-05-19T18:31:44.865Z,1019.84
2023-05-19T18:33:31.161Z,1019.91
2023-05-19T18:35:14.955Z,1019.89
2023-05-19T18:36:59.862Z,1019.97
2023-05-19T18:38:44.911Z,1019.84
2023-05-19T18:40:29.895Z,1019.88
2023-05-19T18:42:14.847Z,1019.87
2023-05-19T18:43:59.858Z,1019.97
2023-05-19T18:45:44.962Z,1019.9
2023-05-19T18:47:29.954Z,1019.88
2023-05-19T18:49:14.892Z,1019.92
2023-05-19T18:50:59.993Z,1020.01
2023-05-19T18:52:44.927Z,1019.98
2023-05-19T18:54:29.922Z,1019.93
2023-05-19T18:56:14.923Z,1019.92
2023-05-19T18:58:00.223Z,1019.94
2023-05-19T18:59:44.898Z,1019.91
2023-05-19T19:01:30.240Z,1019.97
2023-05-19T19:03:15.188Z,1020
2023-05-19T19:05:00.953Z,1020
2023-05-19T19:06:44.978Z,1019.95
2023-05-19T19:08:29.915Z,1019.94
2023-05-19T19:10:14.902Z,1020.02
2023-05-19T19:11:59.927Z,1020.08
2023-05-19T19:13:44.938Z,1020
2023-05-19T19:15:29.898Z,1020.1
2023-05-19T19:17:14.937Z,1020.07
2023-05-19T19:18:59.985Z,1020.07
2023-05-19T19:20:44.905Z,1020.19
2023-05-19T19:22:29.991Z,1020.16
2023-05-19T19:24:14.904Z,1020.17
2023-05-19T19:25:59.910Z,1020.15
2023-05-19T19:27:44.937Z,1020.2
2023-05-19T19:29:29.941Z,1020.28
2023-05-19T19:31:14.935Z,1020.32
2023-05-19T19:32:59.985Z,1020.41
2023-05-19T19:34:44.941Z,1020.28
2023-05-19T19:36:29.923Z,1020.25
2023-05-19T19:38:14.991Z,1020.28
2023-05-19T19:39:59.946Z,1020.31
2023-05-19T19:41:44.932Z,1020.29
2023-05-19T19:43:29.994Z,1020.24
2023-05-19T19:45:15.750Z,1020.23
2023-05-19T19:46:59.927Z,1020.41
2023-05-19T19:48:44.984Z,1020.34
2023-05-19T19:50:30.279Z,1020.46
2023-05-19T19:52:14.972Z,1020.31
2023-05-19T19:54:00.085Z,1020.32
2023-05-19T19:55:44.960Z,1020.32
2023-05-19T19:57:29.984Z,1020.33
2023-05-19T19:59:14.998Z,1020.37
2023-05-19T20:00:59.963Z,1020.35
2023-05-19T20:03:02.607Z,1020.39
2023-05-19T20:04:30.149Z,1020.42
2023-05-19T20:06:14.961Z,1020.47
2023-05-19T20:08:00.006Z,1020.48
2023-05-19T20:09:45.346Z,1020.41
2023-05-19T20:11:29.977Z,1020.49
2023-05-19T20:13:14.990Z,1020.45
2023-05-19T20:15:00.003Z,1020.5
2023-05-19T20:16:44.991Z,1020.54
2023-05-19T20:18:30.183Z,1020.48
2023-05-19T20:20:15.032Z,1020.46
2023-05-19T20:21:59.987Z,1020.54
2023-05-19T20:23:45.002Z,1020.52
2023-05-19T20:25:30.111Z,1020.53
2023-05-19T20:27:14.997Z,1020.48
2023-05-19T20:29:00.025Z,1020.49
2023-05-19T20:30:45.071Z,1020.59
2023-05-19T20:32:30.007Z,1020.65
2023-05-19T20:34:15.017Z,1020.64
2023-05-19T20:36:00.346Z,1020.48
2023-05-19T20:37:45.006Z,1020.55
2023-05-19T20:39:30.010Z,1020.64
2023-05-19T20:41:15.418Z,1020.6
2023-05-19T20:43:00.030Z,1020.65
2023-05-19T20:44:45.021Z,1020.67
2023-05-19T20:46:30.111Z,1020.72
2023-05-19T20:48:15.064Z,1020.74
2023-05-19T20:50:00.028Z,1020.66
2023-05-19T20:51:45.013Z,1020.69
2023-05-19T20:53:30.023Z,1020.74
2023-05-19T20:55:15.024Z,1020.73
2023-05-19T20:57:00.125Z,1020.73
2023-05-19T20:58:45.049Z,1020.72
2023-05-19T21:00:30.654Z,1020.69
2023-05-19T21:02:15.070Z,1020.69
2023-05-19T21:04:00.090Z,1020.76
2023-05-19T21:05:45.353Z,1020.69
2023-05-19T21:07:30.061Z,1020.75
2023-05-19T21:09:15.055Z,1020.71
2023-05-19T21:11:00.041Z,1020.73
2023-05-19T21:12:45.122Z,1020.77
2023-05-19T21:14:30.083Z,1020.76
2023-05-19T21:16:15.157Z,1020.73
2023-05-19T21:18:00.072Z,1020.77
2023-05-19T21:19:45.121Z,1020.72